Time;durP1;ratioP1;P1;durP2;ratioP2;P2;SDS_P1;SDS_P2;PMS_P1;PMS_P2;Temp;Humidity;BMP_temperature;BMP_pressure;BME280_temperature;BME280_humidity;BME280_pressure;Samples;Min_cycle;Max_cycle;Signal;HPM_P1;HPM_P2
2021/10/13 00:00:36;;;;;;;2.83;1.00;;;8.00;99.90;;;;;;5115520;28;20237;-72
2021/10/13 00:03:04;;;;;;;0.80;0.80;;;8.00;99.90;;;;;;5108828;28;20632;-70
2021/10/13 00:05:31;;;;;;;1.23;1.07;;;7.90;99.90;;;;;;5112614;28;20251;-71
2021/10/13 00:07:58;;;;;;;1.70;1.00;;;7.80;99.90;;;;;;5112588;28;20262;-71
2021/10/13 00:10:24;;;;;;;0.70;0.70;;;7.70;99.90;;;;;;5111649;28;20772;-70
2021/10/13 00:12:51;;;;;;;2.30;0.93;;;7.60;99.90;;;;;;5112022;28;20210;-70
2021/10/13 00:15:19;;;;;;;0.80;0.80;;;7.70;99.90;;;;;;5112390;28;20289;-70
2021/10/13 00:17:46;;;;;;;1.80;1.07;;;7.70;99.90;;;;;;5112258;28;20213;-71
2021/10/13 00:20:13;;;;;;;1.73;0.70;;;7.80;99.90;;;;;;5112391;28;20267;-71
2021/10/13 00:22:39;;;;;;;1.87;1.17;;;7.70;99.90;;;;;;5112233;28;20263;-71
2021/10/13 00:25:07;;;;;;;0.93;0.90;;;7.80;99.90;;;;;;5112463;28;20229;-71
2021/10/13 00:27:33;;;;;;;0.93;0.80;;;7.80;99.90;;;;;;5112382;28;20213;-71
2021/10/13 00:30:00;;;;;;;1.03;1.00;;;7.80;99.90;;;;;;5112399;28;20210;-70
2021/10/13 00:32:28;;;;;;;1.23;0.90;;;7.80;99.90;;;;;;5112645;28;20226;-70
2021/10/13 00:34:55;;;;;;;0.73;0.73;;;7.80;99.90;;;;;;5111275;28;20700;-71
2021/10/13 00:37:22;;;;;;;2.33;0.90;;;7.70;99.90;;;;;;5111621;28;20668;-71
2021/10/13 00:39:48;;;;;;;2.93;1.20;;;7.60;99.90;;;;;;5111123;28;20245;-71
2021/10/13 00:42:15;;;;;;;2.20;1.00;;;7.50;99.90;;;;;;5111665;28;20210;-70
2021/10/13 00:44:42;;;;;;;1.57;1.00;;;7.50;99.90;;;;;;5111090;28;20238;-70
2021/10/13 00:47:09;;;;;;;2.00;1.10;;;7.40;99.90;;;;;;5110787;28;20238;-71
2021/10/13 00:49:37;;;;;;;0.83;0.83;;;7.40;99.90;;;;;;5110255;28;20721;-70
2021/10/13 00:52:05;;;;;;;0.90;0.90;;;7.30;99.90;;;;;;5110594;28;20234;-71
2021/10/13 00:54:32;;;;;;;0.97;0.83;;;7.40;99.90;;;;;;5110698;28;20723;-70
2021/10/13 00:56:59;;;;;;;1.90;0.87;;;7.60;99.90;;;;;;5110305;28;20206;-70
2021/10/13 00:59:26;;;;;;;3.73;0.80;;;7.70;99.90;;;;;;5109274;28;20665;-71
2021/10/13 01:01:56;;;;;;;2.43;0.70;;;7.90;99.90;;;;;;5111478;28;20226;-72
2021/10/13 01:04:33;;;;;;;1.00;0.87;;;8.00;99.90;;;;;;5111174;28;20247;-71
2021/10/13 01:07:11;;;;;;;2.17;0.80;;;7.90;99.90;;;;;;5111364;28;20271;-71
2021/10/13 01:09:46;;;;;;;2.47;0.93;;;7.90;99.90;;;;;;5111104;28;20699;-71
2021/10/13 01:12:22;;;;;;;2.93;0.90;;;8.00;99.90;;;;;;5110782;28;20602;-71
2021/10/13 01:14:57;;;;;;;1.30;0.70;;;8.00;99.90;;;;;;5110635;28;20202;-71
2021/10/13 01:17:33;;;;;;;0.70;0.70;;;8.00;99.90;;;;;;5111175;28;20190;-71
2021/10/13 01:20:07;;;;;;;0.60;0.60;;;8.10;99.90;;;;;;5111086;28;20249;-71
2021/10/13 01:23:09;;;;;;;0.90;0.90;;;8.10;99.90;;;;;;5110780;28;20637;-72
2021/10/13 01:25:46;;;;;;;0.80;0.70;;;7.90;99.90;;;;;;5078649;28;20205;-72
2021/10/13 01:28:17;;;;;;;0.83;0.83;;;7.90;99.90;;;;;;5110811;27;20229;-72
2021/10/13 01:30:47;;;;;;;2.30;1.00;;;7.90;99.90;;;;;;5110640;28;20251;-72
2021/10/13 01:33:18;;;;;;;0.83;0.80;;;7.80;99.90;;;;;;5111042;28;20318;-72
2021/10/13 01:35:48;;;;;;;1.77;1.07;;;7.80;99.90;;;;;;5110799;28;20245;-72
2021/10/13 01:38:18;;;;;;;1.37;1.10;;;7.80;99.90;;;;;;5110528;28;20262;-70
2021/10/13 01:40:47;;;;;;;1.30;1.20;;;7.90;99.90;;;;;;5111002;28;20282;-71
2021/10/13 01:43:16;;;;;;;2.00;1.30;;;7.80;99.90;;;;;;5111036;28;20215;-71
2021/10/13 01:45:45;;;;;;;1.97;1.03;;;7.80;99.90;;;;;;5110849;28;20206;-71
2021/10/13 01:48:13;;;;;;;1.07;0.90;;;7.80;99.90;;;;;;5110633;28;20202;-71
2021/10/13 01:50:41;;;;;;;2.93;1.13;;;7.80;99.90;;;;;;5110515;28;20210;-72
2021/10/13 01:53:09;;;;;;;1.87;0.90;;;7.80;99.90;;;;;;5110667;28;20258;-71
2021/10/13 01:55:36;;;;;;;2.00;1.10;;;7.90;99.90;;;;;;5110438;28;20210;-71
2021/10/13 01:58:03;;;;;;;1.30;1.00;;;7.90;99.90;;;;;;5110402;28;20260;-72
2021/10/13 02:00:32;;;;;;;1.67;0.90;;;7.90;99.90;;;;;;5109737;28;20291;-70
2021/10/13 02:03:01;;;;;;;1.60;0.90;;;7.90;99.90;;;;;;5110286;28;20270;-71
2021/10/13 02:05:28;;;;;;;3.20;0.77;;;7.80;99.90;;;;;;5110192;28;20213;-71
2021/10/13 02:07:57;;;;;;;1.20;1.03;;;7.80;99.90;;;;;;5110004;28;20648;-70
2021/10/13 02:10:25;;;;;;;5.40;1.10;;;7.80;99.90;;;;;;5110207;28;20303;-71
2021/10/13 02:12:56;;;;;;;0.60;0.60;;;7.80;99.90;;;;;;5110111;28;20252;-70
2021/10/13 02:15:26;;;;;;;1.23;0.83;;;7.70;99.90;;;;;;5109960;28;20195;-71
2021/10/13 02:17:56;;;;;;;0.93;0.70;;;7.80;99.90;;;;;;5110549;28;20251;-71
2021/10/13 02:20:23;;;;;;;0.97;0.80;;;7.70;99.90;;;;;;5110045;27;20230;-72
2021/10/13 02:22:55;;;;;;;1.07;0.93;;;7.70;99.90;;;;;;5111882;27;20752;-70
2021/10/13 02:25:23;;;;;;;1.03;0.70;;;7.70;99.90;;;;;;5122023;27;20202;-71
2021/10/13 02:27:57;;;;;;;0.87;0.87;;;7.70;99.90;;;;;;5115257;28;20266;-73
2021/10/13 02:30:24;;;;;;;0.90;0.90;;;7.70;99.90;;;;;;5109580;28;20196;-71
2021/10/13 02:32:50;;;;;;;3.30;0.93;;;7.70;99.90;;;;;;5107643;28;20284;-70
2021/10/13 02:35:18;;;;;;;0.90;0.90;;;7.70;99.90;;;;;;5114480;27;20224;-70
2021/10/13 02:37:48;;;;;;;0.70;0.70;;;7.60;99.90;;;;;;5105979;28;20237;-70
2021/10/13 02:40:14;;;;;;;0.80;0.80;;;7.60;99.90;;;;;;5105373;28;20230;-70
2021/10/13 02:42:41;;;;;;;1.37;1.00;;;7.60;99.90;;;;;;5119356;27;20365;-70
2021/10/13 02:45:09;;;;;;;1.20;0.77;;;7.60;99.90;;;;;;5126133;27;20205;-70
2021/10/13 02:47:40;;;;;;;0.97;0.93;;;7.60;99.90;;;;;;5126131;27;20202;-68
2021/10/13 02:50:11;;;;;;;0.90;0.90;;;7.60;99.90;;;;;;5126217;27;20194;-69
2021/10/13 02:52:45;;;;;;;1.60;1.43;;;7.60;99.90;;;;;;5125929;27;20229;-69
2021/10/13 02:55:18;;;;;;;1.20;1.10;;;7.50;99.90;;;;;;5126087;27;20273;-70
2021/10/13 02:57:53;;;;;;;1.53;1.00;;;7.50;99.90;;;;;;5125865;27;20609;-70
2021/10/13 03:00:22;;;;;;;1.27;0.93;;;7.50;99.90;;;;;;5125390;27;20276;-70
2021/10/13 03:02:56;;;;;;;1.43;1.07;;;7.50;99.90;;;;;;5125727;27;20205;-70
2021/10/13 03:05:25;;;;;;;1.20;0.87;;;7.50;99.90;;;;;;5122832;27;20202;-71
2021/10/13 03:07:56;;;;;;;1.50;1.40;;;7.40;99.90;;;;;;5115431;27;20792;-71
2021/10/13 03:10:24;;;;;;;1.27;1.00;;;7.40;99.90;;;;;;5125525;27;20229;-70
2021/10/13 03:12:54;;;;;;;3.03;1.27;;;7.40;99.90;;;;;;5111853;27;20299;-71
2021/10/13 03:15:22;;;;;;;2.07;1.27;;;7.40;99.90;;;;;;5107437;28;20206;-70
2021/10/13 03:17:53;;;;;;;1.27;1.13;;;7.40;99.90;;;;;;5106860;28;20233;-71
2021/10/13 03:20:20;;;;;;;1.03;1.03;;;7.40;99.90;;;;;;5107251;28;20294;-71
2021/10/13 03:22:47;;;;;;;1.47;1.20;;;7.40;99.90;;;;;;5107450;28;20241;-71
2021/10/13 03:25:23;;;;;;;1.50;1.40;;;7.30;99.90;;;;;;5107451;28;20229;-71
2021/10/13 03:27:50;;;;;;;1.07;0.97;;;7.30;99.90;;;;;;5107174;28;20584;-71
2021/10/13 03:30:16;;;;;;;2.20;1.13;;;7.30;99.90;;;;;;5107927;28;20709;-71
2021/10/13 03:32:44;;;;;;;1.73;1.30;;;7.30;99.90;;;;;;5109067;28;20261;-71
2021/10/13 03:35:11;;;;;;;1.10;0.97;;;7.30;99.90;;;;;;5108703;28;20443;-71
2021/10/13 03:37:37;;;;;;;1.33;1.10;;;7.30;99.90;;;;;;5107924;28;20210;-71
2021/10/13 03:40:05;;;;;;;1.47;1.00;;;7.20;99.90;;;;;;5108644;28;20279;-71
2021/10/13 03:42:33;;;;;;;1.40;1.30;;;7.20;99.90;;;;;;5108591;28;20290;-71
2021/10/13 03:45:00;;;;;;;1.97;1.10;;;7.20;99.90;;;;;;5108572;28;20231;-71
2021/10/13 03:47:27;;;;;;;1.33;0.83;;;7.20;99.90;;;;;;5108380;28;20219;-71
2021/10/13 03:49:53;;;;;;;2.20;1.17;;;7.20;99.90;;;;;;5108790;28;20198;-71
2021/10/13 03:52:20;;;;;;;3.00;1.20;;;7.20;99.90;;;;;;5108367;28;20278;-71
2021/10/13 03:54:46;;;;;;;1.07;1.07;;;7.10;99.90;;;;;;5108712;28;20205;-70
2021/10/13 03:57:13;;;;;;;1.33;1.13;;;7.20;99.90;;;;;;5108551;28;20205;-71
2021/10/13 03:59:41;;;;;;;1.07;0.93;;;7.10;99.90;;;;;;5108387;28;20277;-71
2021/10/13 04:02:08;;;;;;;1.13;1.03;;;7.10;99.90;;;;;;5108601;28;20228;-71
2021/10/13 04:04:34;;;;;;;1.17;1.17;;;7.10;99.90;;;;;;5108243;28;20237;-71
2021/10/13 04:07:01;;;;;;;1.30;1.20;;;7.10;99.90;;;;;;5108047;28;20927;-71
2021/10/13 04:09:27;;;;;;;1.63;1.00;;;7.10;99.90;;;;;;5108365;28;20310;-71
2021/10/13 04:11:54;;;;;;;1.70;1.00;;;7.10;99.90;;;;;;5108184;28;20668;-71
2021/10/13 04:14:21;;;;;;;0.80;0.80;;;7.10;99.90;;;;;;5108391;28;20206;-71
2021/10/13 04:16:48;;;;;;;2.30;1.33;;;7.00;99.90;;;;;;5108374;28;20206;-71
2021/10/13 04:19:15;;;;;;;1.47;1.37;;;7.10;99.90;;;;;;5108274;28;20287;-70
2021/10/13 04:21:42;;;;;;;2.03;1.13;;;7.00;99.90;;;;;;5108671;28;20281;-70
2021/10/13 04:24:08;;;;;;;1.20;1.10;;;7.00;99.90;;;;;;5108271;28;20667;-69
2021/10/13 04:26:35;;;;;;;2.90;1.23;;;7.00;99.90;;;;;;5107994;28;20592;-70
2021/10/13 04:29:02;;;;;;;1.10;1.10;;;7.00;99.90;;;;;;5108311;28;20214;-70
2021/10/13 04:31:28;;;;;;;1.17;1.07;;;6.90;99.90;;;;;;5107887;28;20221;-70
2021/10/13 04:33:56;;;;;;;2.17;1.27;;;6.90;99.90;;;;;;5108089;28;20283;-70
2021/10/13 04:36:23;;;;;;;1.47;1.13;;;6.90;99.90;;;;;;5107966;28;20244;-70
2021/10/13 04:38:49;;;;;;;1.60;1.50;;;6.90;99.90;;;;;;5108116;28;20207;-70
2021/10/13 04:41:16;;;;;;;1.33;1.20;;;6.90;99.90;;;;;;5107705;28;20258;-70
2021/10/13 04:43:42;;;;;;;1.70;1.30;;;6.90;99.90;;;;;;5107898;28;20648;-70
2021/10/13 04:46:09;;;;;;;1.70;1.23;;;6.90;99.90;;;;;;5108232;28;20304;-70
2021/10/13 04:48:35;;;;;;;1.30;1.30;;;6.90;99.90;;;;;;5107986;28;20202;-70
2021/10/13 04:51:04;;;;;;;1.50;1.40;;;6.90;99.90;;;;;;5111288;28;20269;-70
2021/10/13 04:53:30;;;;;;;2.97;2.20;;;6.80;99.90;;;;;;5111393;28;20226;-70
2021/10/13 04:55:57;;;;;;;1.93;1.83;;;6.90;99.90;;;;;;5111791;28;20299;-70
2021/10/13 04:58:24;;;;;;;2.33;1.70;;;6.90;99.90;;;;;;5111513;27;20292;-70
2021/10/13 05:00:50;;;;;;;1.93;1.60;;;6.90;99.90;;;;;;5111028;28;20234;-70
2021/10/13 05:03:17;;;;;;;1.63;1.60;;;6.80;99.90;;;;;;5111675;28;20229;-71
2021/10/13 05:05:43;;;;;;;1.70;1.60;;;6.80;99.90;;;;;;5111535;28;20226;-71
2021/10/13 05:08:11;;;;;;;2.23;1.60;;;6.80;99.90;;;;;;5111466;28;20233;-71
2021/10/13 05:10:38;;;;;;;2.23;1.70;;;6.80;99.90;;;;;;5111268;28;20287;-71
2021/10/13 05:13:05;;;;;;;2.40;2.20;;;6.80;99.90;;;;;;5110436;28;20209;-71
2021/10/13 05:15:32;;;;;;;2.40;2.20;;;6.70;99.90;;;;;;5111363;28;20473;-71
2021/10/13 05:17:58;;;;;;;2.30;2.10;;;6.70;99.90;;;;;;5111259;28;20202;-71
2021/10/13 05:20:25;;;;;;;2.73;1.80;;;6.50;99.90;;;;;;5111295;28;20202;-71
2021/10/13 05:22:52;;;;;;;2.40;1.73;;;6.30;99.90;;;;;;5111214;28;20267;-71
2021/10/13 05:25:19;;;;;;;2.43;2.23;;;6.20;99.90;;;;;;5111130;28;20626;-71
2021/10/13 05:27:46;;;;;;;2.43;2.23;;;6.30;99.90;;;;;;5111262;28;20226;-71
2021/10/13 05:30:13;;;;;;;2.50;2.30;;;6.30;99.90;;;;;;5111150;28;20233;-71
2021/10/13 05:32:40;;;;;;;2.43;2.27;;;6.20;99.90;;;;;;5111109;28;20242;-71
2021/10/13 05:35:07;;;;;;;2.77;2.20;;;6.30;99.90;;;;;;5111056;28;20633;-71
2021/10/13 05:37:34;;;;;;;2.30;2.10;;;6.30;99.90;;;;;;5110591;28;20238;-71
2021/10/13 05:40:00;;;;;;;2.83;2.63;;;6.10;99.90;;;;;;5110948;28;20233;-71
2021/10/13 05:42:28;;;;;;;3.23;2.50;;;6.10;99.90;;;;;;5110966;28;20198;-71
2021/10/13 05:44:55;;;;;;;2.63;2.43;;;6.20;99.90;;;;;;5111051;28;20251;-71
2021/10/13 05:47:22;;;;;;;2.60;2.20;;;6.00;99.90;;;;;;5110835;28;20198;-71
2021/10/13 05:49:48;;;;;;;2.70;2.20;;;6.00;99.90;;;;;;5110419;28;20226;-71
2021/10/13 05:52:16;;;;;;;3.03;2.60;;;6.00;99.90;;;;;;5110486;28;20257;-71
2021/10/13 05:54:43;;;;;;;2.63;2.43;;;6.00;99.90;;;;;;5110650;28;20213;-71
2021/10/13 05:57:10;;;;;;;3.07;2.77;;;6.10;99.90;;;;;;5110798;28;20259;-71
2021/10/13 05:59:40;;;;;;;3.10;2.90;;;6.20;99.90;;;;;;5110102;28;20245;-71
2021/10/13 06:02:07;;;;;;;2.70;2.50;;;6.20;99.90;;;;;;5102376;28;20203;-71
2021/10/13 06:04:33;;;;;;;3.33;2.37;;;6.30;99.90;;;;;;5089933;28;20199;-71
2021/10/13 06:07:00;;;;;;;2.80;2.60;;;6.40;99.90;;;;;;5089906;28;20239;-71
2021/10/13 06:09:27;;;;;;;2.73;2.53;;;6.50;99.90;;;;;;5089387;28;20250;-71
2021/10/13 06:11:53;;;;;;;3.30;2.97;;;6.60;99.90;;;;;;5090043;28;20730;-71
2021/10/13 06:14:20;;;;;;;5.33;4.80;;;6.60;99.90;;;;;;5089662;28;20204;-71
2021/10/13 06:16:48;;;;;;;6.80;5.90;;;6.50;99.90;;;;;;5089848;28;20358;-71
2021/10/13 06:19:17;;;;;;;4.00;3.60;;;6.60;99.90;;;;;;5089642;28;20256;-71
2021/10/13 06:21:44;;;;;;;3.90;3.57;;;6.50;99.90;;;;;;5089604;28;20202;-71
2021/10/13 06:24:10;;;;;;;4.20;3.83;;;6.60;99.90;;;;;;5089511;28;20283;-71
2021/10/13 06:26:37;;;;;;;3.63;3.33;;;6.60;99.90;;;;;;5089448;28;20234;-71
2021/10/13 06:29:04;;;;;;;3.83;3.40;;;6.70;99.90;;;;;;5089289;28;20299;-71
2021/10/13 06:31:30;;;;;;;3.23;2.93;;;6.70;99.90;;;;;;5089179;28;20321;-71
2021/10/13 06:33:58;;;;;;;5.60;3.27;;;6.70;99.90;;;;;;5089333;28;20227;-71
2021/10/13 06:36:25;;;;;;;3.60;2.77;;;6.70;99.90;;;;;;5089641;28;20261;-71
2021/10/13 06:38:52;;;;;;;14.10;5.53;;;6.70;99.90;;;;;;5089268;28;20202;-71
2021/10/13 06:41:18;;;;;;;12.63;4.70;;;6.70;99.90;;;;;;5089184;28;20248;-71
2021/10/13 06:43:45;;;;;;;43.23;11.73;;;6.80;99.90;;;;;;5089448;28;20206;-71
2021/10/13 06:46:12;;;;;;;36.47;10.57;;;6.70;99.90;;;;;;5089146;28;20616;-71
2021/10/13 06:48:38;;;;;;;20.57;6.40;;;6.80;99.90;;;;;;5088731;28;20658;-71
2021/10/13 06:51:06;;;;;;;8.50;4.63;;;6.90;99.90;;;;;;5088889;28;20308;-71
2021/10/13 06:53:33;;;;;;;5.27;3.83;;;6.90;99.90;;;;;;5088170;28;20720;-71
2021/10/13 06:56:00;;;;;;;5.73;3.90;;;7.00;99.90;;;;;;5088982;28;20631;-71
2021/10/13 06:58:27;;;;;;;4.47;4.07;;;7.00;99.90;;;;;;5088746;28;20264;-71
2021/10/13 07:00:54;;;;;;;4.07;3.67;;;7.00;99.90;;;;;;5088612;28;20759;-71
2021/10/13 07:03:20;;;;;;;5.60;3.70;;;6.90;99.90;;;;;;5088798;28;20211;-71
2021/10/13 07:05:47;;;;;;;3.70;3.40;;;6.80;99.90;;;;;;5088951;28;20627;-71
2021/10/13 07:08:16;;;;;;;3.30;3.03;;;6.90;99.90;;;;;;5088722;28;20230;-71
2021/10/13 07:10:42;;;;;;;4.07;3.17;;;7.00;99.90;;;;;;5088445;28;20241;-71
2021/10/13 07:13:09;;;;;;;3.67;3.30;;;7.10;99.90;;;;;;5088567;28;20235;-71
2021/10/13 07:15:36;;;;;;;5.50;4.03;;;7.00;99.90;;;;;;5088334;28;20229;-71
2021/10/13 07:18:03;;;;;;;4.07;3.77;;;6.90;99.90;;;;;;5088549;28;20211;-71
2021/10/13 07:20:29;;;;;;;4.20;3.80;;;6.90;99.90;;;;;;5088385;28;21067;-71
2021/10/13 07:22:57;;;;;;;5.17;3.43;;;7.00;99.90;;;;;;5088591;28;20259;-71
2021/10/13 07:25:27;;;;;;;6.07;3.80;;;7.10;99.90;;;;;;5088418;28;20207;-71
2021/10/13 07:27:54;;;;;;;4.60;4.20;;;7.00;99.90;;;;;;5088600;28;20202;-71
2021/10/13 07:30:24;;;;;;;4.57;3.80;;;6.90;99.90;;;;;;5087940;28;20704;-71
2021/10/13 07:32:51;;;;;;;4.60;4.20;;;6.80;99.90;;;;;;5088410;28;20223;-71
2021/10/13 07:35:18;;;;;;;5.80;4.37;;;6.80;99.90;;;;;;5088358;28;20217;-71
2021/10/13 07:37:45;;;;;;;4.40;3.83;;;6.80;99.90;;;;;;5088539;28;20368;-71
2021/10/13 07:40:12;;;;;;;6.37;4.73;;;6.80;99.90;;;;;;5088276;28;20218;-71
2021/10/13 07:42:40;;;;;;;4.97;4.57;;;6.70;99.90;;;;;;5087738;28;20206;-71
2021/10/13 07:45:08;;;;;;;4.80;4.30;;;6.70;99.90;;;;;;5088044;28;20664;-71
2021/10/13 07:47:35;;;;;;;5.97;4.70;;;6.70;99.90;;;;;;5088138;28;20607;-71
2021/10/13 07:50:02;;;;;;;5.53;5.03;;;6.70;99.90;;;;;;5087912;28;20620;-71
2021/10/13 07:52:28;;;;;;;6.03;4.63;;;6.80;99.90;;;;;;5087855;28;20735;-71
2021/10/13 07:54:55;;;;;;;4.93;4.40;;;6.90;99.90;;;;;;5088100;28;20207;-70
2021/10/13 07:57:21;;;;;;;4.70;4.27;;;6.90;99.90;;;;;;5087953;28;20672;-71
2021/10/13 07:59:50;;;;;;;4.53;4.10;;;7.00;99.90;;;;;;5087781;28;20231;-71
2021/10/13 08:02:17;;;;;;;6.07;5.00;;;7.10;99.90;;;;;;5088047;28;20214;-71
2021/10/13 08:04:43;;;;;;;4.70;4.13;;;7.20;99.90;;;;;;5088049;28;20211;-71
2021/10/13 08:07:10;;;;;;;5.30;4.80;;;7.20;99.90;;;;;;5087660;28;20238;-71
2021/10/13 08:09:37;;;;;;;5.80;4.50;;;7.30;99.90;;;;;;5087828;28;20219;-71
2021/10/13 08:12:04;;;;;;;5.30;4.43;;;7.40;99.90;;;;;;5088145;28;20234;-71
2021/10/13 08:14:30;;;;;;;4.40;4.10;;;7.60;99.90;;;;;;5088040;28;20242;-71
2021/10/13 08:16:58;;;;;;;5.70;4.30;;;7.60;99.90;;;;;;5087848;28;20738;-71
2021/10/13 08:19:25;;;;;;;4.60;4.10;;;7.70;99.90;;;;;;5087818;28;20215;-71
2021/10/13 08:21:52;;;;;;;5.70;4.67;;;7.80;99.90;;;;;;5087894;28;20211;-71
2021/10/13 08:24:18;;;;;;;8.30;6.43;;;7.90;99.90;;;;;;5088357;28;20207;-71
2021/10/13 08:26:45;;;;;;;7.17;6.57;;;7.90;99.90;;;;;;5091920;28;20234;-71
2021/10/13 08:29:11;;;;;;;4.97;4.57;;;8.00;99.90;;;;;;5091784;28;20210;-71
2021/10/13 08:31:38;;;;;;;4.77;4.30;;;8.00;99.90;;;;;;5091585;28;20311;-71
2021/10/13 08:34:07;;;;;;;4.77;4.47;;;8.10;99.90;;;;;;5091193;28;20223;-70
2021/10/13 08:36:33;;;;;;;4.30;4.00;;;8.10;99.90;;;;;;5091574;28;20218;-71
2021/10/13 08:39:00;;;;;;;6.30;4.40;;;8.10;99.90;;;;;;5091665;28;20245;-71
2021/10/13 08:41:26;;;;;;;6.20;4.30;;;8.30;99.90;;;;;;5091479;28;20633;-71
2021/10/13 08:43:53;;;;;;;4.00;3.70;;;8.30;99.90;;;;;;5091549;28;20230;-71
2021/10/13 08:46:20;;;;;;;4.70;4.27;;;8.40;99.90;;;;;;5091538;28;20234;-71
2021/10/13 08:48:47;;;;;;;4.30;3.90;;;8.50;99.90;;;;;;5091507;28;20249;-71
2021/10/13 08:51:15;;;;;;;4.57;3.80;;;8.60;99.90;;;;;;5091252;28;20636;-71
2021/10/13 08:53:41;;;;;;;4.23;3.83;;;8.70;99.90;;;;;;5091224;28;20260;-71
2021/10/13 08:56:08;;;;;;;3.83;3.53;;;8.80;99.90;;;;;;5091444;28;20280;-71
2021/10/13 08:58:40;;;;;;;6.77;4.00;;;9.00;99.90;;;;;;5090500;28;20686;-71
2021/10/13 09:01:12;;;;;;;3.70;3.40;;;9.10;99.90;;;;;;5090844;28;20238;-71
2021/10/13 09:03:41;;;;;;;5.53;3.50;;;9.20;99.90;;;;;;5091185;28;20206;-71
2021/10/13 09:06:20;;;;;;;3.40;3.10;;;9.30;99.90;;;;;;5091238;28;20249;-71
2021/10/13 09:08:58;;;;;;;3.53;3.13;;;9.50;99.90;;;;;;5091157;28;20222;-71
2021/10/13 09:11:33;;;;;;;3.23;2.97;;;9.60;99.90;;;;;;5091078;28;20231;-71
2021/10/13 09:14:09;;;;;;;4.50;3.27;;;9.70;99.90;;;;;;5090972;28;20283;-71
2021/10/13 09:16:50;;;;;;;4.30;3.07;;;9.90;99.90;;;;;;5090748;28;20215;-71
2021/10/13 09:19:17;;;;;;;2.87;2.67;;;10.00;99.90;;;;;;5090437;28;20656;-71
2021/10/13 09:21:51;;;;;;;2.93;2.63;;;10.10;99.90;;;;;;5090804;28;20729;-71
2021/10/13 09:24:18;;;;;;;3.30;2.77;;;10.30;99.90;;;;;;5090751;28;20248;-71
2021/10/13 09:26:46;;;;;;;2.43;2.20;;;10.50;99.90;;;;;;5090738;28;20203;-71
2021/10/13 09:29:12;;;;;;;3.03;2.67;;;10.70;99.90;;;;;;5090788;28;20230;-71
2021/10/13 09:31:39;;;;;;;3.20;2.97;;;10.80;99.90;;;;;;5090467;28;20234;-71
2021/10/13 09:34:08;;;;;;;2.60;2.40;;;11.00;99.90;;;;;;5090548;28;20223;-71
2021/10/13 09:36:36;;;;;;;2.70;2.50;;;11.00;99.90;;;;;;5090315;28;20211;-71
2021/10/13 09:39:12;;;;;;;3.87;2.83;;;10.90;99.90;;;;;;5090239;28;20339;-71
2021/10/13 09:42:02;;;;;;;3.90;2.83;;;10.80;99.90;;;;;;5090227;28;20205;-71
2021/10/13 09:44:30;;;;;;;3.07;2.57;;;10.80;99.90;;;;;;5090184;28;20343;-71
2021/10/13 09:46:59;;;;;;;4.47;3.03;;;10.80;99.90;;;;;;5089595;28;20603;-71
2021/10/13 09:49:28;;;;;;;3.43;3.10;;;10.90;99.90;;;;;;5089684;28;20209;-71
2021/10/13 09:52:01;;;;;;;3.47;2.90;;;11.00;99.90;;;;;;5089873;28;20266;-71
2021/10/13 09:54:29;;;;;;;3.13;2.80;;;11.10;99.90;;;;;;5089941;28;20209;-71
2021/10/13 09:56:56;;;;;;;5.60;2.80;;;11.20;99.90;;;;;;5090170;28;20207;-71
2021/10/13 09:59:23;;;;;;;2.93;2.63;;;11.40;99.90;;;;;;5089766;28;20239;-71
2021/10/13 10:01:53;;;;;;;2.90;2.70;;;11.40;99.90;;;;;;5090125;28;20244;-71
2021/10/13 10:04:23;;;;;;;2.50;2.27;;;11.50;99.90;;;;;;5089727;28;20251;-71
2021/10/13 10:06:53;;;;;;;2.20;2.10;;;11.70;99.90;;;;;;5090339;28;20206;-71
2021/10/13 10:09:21;;;;;;;2.73;1.83;;;11.70;99.90;;;;;;5089575;28;20227;-71
2021/10/13 10:11:51;;;;;;;2.27;2.10;;;11.90;99.90;;;;;;5089743;28;20283;-71
2021/10/13 10:14:47;;;;;;;2.90;2.43;;;12.00;99.90;;;;;;5089569;28;20237;-71
2021/10/13 10:17:34;;;;;;;11.47;4.17;;;12.00;99.90;;;;;;5089624;28;20198;-69
2021/10/13 10:20:00;;;;;;;32.33;11.23;;;12.20;99.90;;;;;;5089540;28;20210;-71
2021/10/13 10:22:27;;;;;;;95.57;27.27;;;12.20;99.90;;;;;;5089456;28;20335;-71
2021/10/13 10:24:55;;;;;;;62.33;19.97;;;12.20;99.90;;;;;;5089512;28;20207;-71
2021/10/13 10:27:27;;;;;;;83.47;28.43;;;12.30;99.90;;;;;;5089344;28;20234;-71
2021/10/13 10:30:19;;;;;;;21.73;7.83;;;12.40;99.90;;;;;;5089449;28;20263;-72
2021/10/13 10:33:02;;;;;;;18.93;7.37;;;12.50;99.90;;;;;;5074062;28;20766;-71
2021/10/13 10:35:28;;;;;;;6.93;4.30;;;12.60;99.90;;;;;;5086400;28;20203;-71
2021/10/13 10:38:05;;;;;;;6.00;2.70;;;12.70;99.90;;;;;;5089246;28;20199;-71
2021/10/13 10:40:32;;;;;;;5.60;2.47;;;12.60;99.90;;;;;;5089436;28;20601;-71
2021/10/13 10:43:03;;;;;;;2.50;2.10;;;12.60;99.90;;;;;;5089144;28;20256;-71
2021/10/13 10:45:39;;;;;;;2.57;2.37;;;12.50;99.90;;;;;;5089205;28;20241;-71
2021/10/13 10:48:09;;;;;;;2.17;2.07;;;12.30;99.90;;;;;;5088597;28;20214;-71
2021/10/13 10:50:46;;;;;;;2.67;2.17;;;12.40;99.90;;;;;;5088808;28;20668;-72
2021/10/13 10:53:19;;;;;;;4.23;2.37;;;12.50;99.90;;;;;;5089081;28;20316;-71
2021/10/13 10:55:48;;;;;;;2.50;2.10;;;12.60;99.90;;;;;;5089064;28;20283;-71
2021/10/13 10:58:22;;;;;;;2.73;2.13;;;12.50;99.90;;;;;;5088949;28;20206;-71
2021/10/13 11:01:01;;;;;;;3.23;2.30;;;12.60;99.90;;;;;;5088988;28;20238;-71
2021/10/13 11:03:33;;;;;;;2.27;2.07;;;12.80;99.90;;;;;;5087816;28;20284;-71
2021/10/13 11:06:11;;;;;;;2.20;1.97;;;12.80;99.90;;;;;;5089250;28;20316;-71
2021/10/13 11:08:52;;;;;;;3.00;2.80;;;12.90;99.90;;;;;;5088542;28;20226;-71
2021/10/13 11:11:19;;;;;;;4.03;2.73;;;12.90;99.90;;;;;;5088364;28;20275;-71
2021/10/13 11:13:58;;;;;;;3.10;2.30;;;12.90;99.90;;;;;;5088849;28;20207;-71
2021/10/13 11:16:25;;;;;;;3.73;3.23;;;12.90;99.90;;;;;;5088721;28;20205;-71
2021/10/13 11:18:52;;;;;;;4.53;3.23;;;13.00;99.90;;;;;;5088610;28;20327;-71
2021/10/13 11:21:18;;;;;;;3.00;2.67;;;13.10;99.90;;;;;;5088672;28;20207;-71
2021/10/13 11:23:47;;;;;;;3.13;2.60;;;13.30;99.90;;;;;;5088714;28;20206;-71
2021/10/13 11:26:13;;;;;;;3.00;2.47;;;13.10;99.90;;;;;;5088418;28;20273;-71
2021/10/13 11:28:41;;;;;;;4.67;2.53;;;13.10;99.90;;;;;;5088467;28;20211;-71
2021/10/13 11:31:10;;;;;;;2.70;2.40;;;13.20;99.90;;;;;;5088378;28;20279;-71
2021/10/13 11:33:38;;;;;;;2.47;2.27;;;13.30;99.90;;;;;;5088087;28;20261;-71
2021/10/13 11:36:06;;;;;;;2.43;2.30;;;13.50;99.90;;;;;;5088349;28;20210;-71
2021/10/13 11:38:35;;;;;;;2.80;2.60;;;13.40;99.90;;;;;;5088216;28;20210;-71
2021/10/13 11:41:07;;;;;;;2.60;2.50;;;13.40;99.90;;;;;;5088352;28;20257;-71
2021/10/13 11:43:35;;;;;;;2.80;2.60;;;13.60;99.90;;;;;;5087985;28;20653;-71
2021/10/13 11:46:03;;;;;;;2.57;2.37;;;13.60;99.90;;;;;;5088308;28;20248;-71
2021/10/13 11:48:33;;;;;;;2.87;2.67;;;13.90;99.90;;;;;;5087710;28;20616;-71
2021/10/13 11:51:02;;;;;;;3.90;2.93;;;14.00;99.90;;;;;;5088107;28;20219;-71
2021/10/13 11:53:30;;;;;;;3.23;2.70;;;14.00;99.90;;;;;;5086948;28;20261;-71
2021/10/13 11:55:57;;;;;;;2.60;2.40;;;13.80;99.90;;;;;;5087742;28;20665;-71
2021/10/13 11:58:25;;;;;;;2.73;2.53;;;13.90;99.90;;;;;;5087723;28;20239;-71
2021/10/13 12:00:52;;;;;;;2.43;2.33;;;13.90;99.90;;;;;;5091280;28;20234;-71
2021/10/13 12:03:18;;;;;;;2.77;2.57;;;13.60;99.90;;;;;;5092147;28;20214;-71
2021/10/13 12:05:51;;;;;;;2.50;2.30;;;13.50;99.90;;;;;;5092239;28;20636;-71
2021/10/13 12:08:19;;;;;;;2.50;2.30;;;13.70;99.90;;;;;;5091919;28;20704;-71
2021/10/13 12:10:49;;;;;;;2.33;2.23;;;13.90;99.90;;;;;;5092254;28;20204;-72
2021/10/13 12:13:17;;;;;;;2.23;2.13;;;14.20;99.90;;;;;;5092163;28;20229;-71
2021/10/13 12:15:45;;;;;;;2.00;1.90;;;14.40;99.90;;;;;;5092046;28;20206;-71
2021/10/13 12:18:15;;;;;;;2.27;2.10;;;14.40;99.90;;;;;;5091746;28;20261;-71
2021/10/13 12:20:42;;;;;;;2.93;1.90;;;14.60;99.90;;;;;;5091960;28;20573;-71
2021/10/13 12:23:16;;;;;;;2.10;2.00;;;14.80;99.90;;;;;;5091969;28;20234;-71
2021/10/13 12:25:43;;;;;;;3.87;2.30;;;15.00;99.90;;;;;;5091824;28;20197;-72
2021/10/13 12:28:19;;;;;;;1.93;1.83;;;15.20;99.90;;;;;;5091783;28;20213;-72
2021/10/13 12:30:47;;;;;;;2.27;2.00;;;15.10;99.90;;;;;;5091715;28;20258;-72
2021/10/13 12:33:17;;;;;;;2.10;2.00;;;15.30;99.90;;;;;;5091505;28;20277;-71
2021/10/13 12:35:44;;;;;;;2.30;2.20;;;15.50;99.90;;;;;;5091620;28;20199;-72
2021/10/13 12:38:15;;;;;;;3.60;2.10;;;15.40;99.90;;;;;;5091634;28;20260;-71
2021/10/13 12:40:59;;;;;;;2.10;2.00;;;15.20;99.90;;;;;;5091653;28;20203;-72
2021/10/13 12:43:26;;;;;;;3.37;1.97;;;15.50;99.90;;;;;;5091020;28;20649;-71
2021/10/13 12:45:52;;;;;;;3.10;2.20;;;15.40;99.90;;;;;;5091572;28;20207;-71
2021/10/13 12:48:21;;;;;;;2.47;2.23;;;15.50;99.90;;;;;;5091410;28;20238;-72
2021/10/13 12:51:08;;;;;;;2.73;2.53;;;15.70;99.90;;;;;;5091123;28;20238;-72
2021/10/13 12:53:37;;;;;;;1.67;1.57;;;15.70;99.90;;;;;;5091252;28;20238;-72
2021/10/13 12:56:05;;;;;;;1.97;1.67;;;15.60;99.90;;;;;;5091419;28;20255;-71
2021/10/13 12:58:32;;;;;;;3.30;1.90;;;15.70;99.90;;;;;;5091026;28;20227;-72
2021/10/13 13:00:58;;;;;;;2.60;1.87;;;15.90;99.90;;;;;;5090804;28;20227;-72